Time;durP1;ratioP1;P1;durP2;ratioP2;P2;SDS_P1;SDS_P2;PMS_P1;PMS_P2;Temp;Humidity;BMP_temperature;BMP_pressure;BME280_temperature;BME280_humidity;BME280_pressure;Samples;Min_cycle;Max_cycle;Signal;HPM_P1;HPM_P2
2022/01/27 00:05:53;;;;;;;40.60;27.43;;;8.40;73.70;;;11.29;55.69;102169.03;5034698;28;20194;-62
2022/01/27 00:11:11;;;;;;;42.40;27.13;;;8.40;73.30;;;11.27;55.66;102161.25;5034566;28;20597;-63
2022/01/27 00:13:47;;;;;;;45.00;28.23;;;8.50;73.40;;;11.30;55.67;102170.66;5034217;28;20272;-64
2022/01/27 00:16:24;;;;;;;38.57;26.07;;;8.50;73.40;;;11.35;55.03;102168.44;5033402;28;20190;-65
2022/01/27 00:18:54;;;;;;;42.03;27.90;;;8.50;73.30;;;11.36;55.20;102159.56;5034519;28;20194;-63
2022/01/27 00:21:24;;;;;;;41.10;25.80;;;8.40;73.10;;;11.37;54.85;102166.47;5034218;28;20195;-64
2022/01/27 00:23:52;;;;;;;41.23;28.50;;;8.40;73.00;;;11.36;54.74;102160.38;5043670;28;20224;-64
2022/01/27 00:26:21;;;;;;;40.80;26.20;;;8.40;72.80;;;11.39;55.06;102159.25;5053071;28;20198;-64
2022/01/27 00:28:50;;;;;;;39.13;26.60;;;8.50;72.90;;;11.42;54.57;102158.97;5052998;28;20233;-63
2022/01/27 00:31:21;;;;;;;39.53;25.67;;;8.40;72.60;;;11.44;54.59;102146.47;5054245;28;20655;-63
2022/01/27 00:33:51;;;;;;;42.97;27.13;;;8.40;72.70;;;11.46;54.43;102133.97;5053788;28;20225;-64
2022/01/27 00:36:18;;;;;;;42.40;27.37;;;8.40;72.50;;;11.43;54.17;102131.66;5054055;28;20186;-65
2022/01/27 00:38:46;;;;;;;40.23;24.80;;;8.40;72.40;;;11.37;54.85;102134.84;5054089;28;20200;-65
2022/01/27 00:41:17;;;;;;;40.10;25.50;;;8.40;72.60;;;11.36;54.39;102120.03;5052123;28;20204;-62
2022/01/27 00:43:45;;;;;;;39.90;25.90;;;8.40;72.50;;;11.34;54.31;102103.50;5053541;28;20206;-64
2022/01/27 00:46:16;;;;;;;41.07;26.13;;;8.40;72.40;;;11.32;54.35;102111.56;5053636;28;20185;-63
2022/01/27 00:48:45;;;;;;;35.77;24.40;;;8.40;72.30;;;11.30;54.54;102083.69;5052640;28;20309;-62
2022/01/27 00:51:20;;;;;;;39.90;27.37;;;8.40;72.30;;;11.30;54.31;102073.16;5053486;28;20194;-64
2022/01/27 00:53:54;;;;;;;33.30;22.07;;;8.50;72.30;;;11.30;54.77;102086.34;5053182;28;20291;-64
2022/01/27 00:56:32;;;;;;;38.30;24.37;;;8.50;72.20;;;11.32;54.48;102089.66;5053486;28;20185;-63
2022/01/27 01:01:40;;;;;;;38.30;24.77;;;8.40;72.00;;;11.27;54.73;102084.81;5053531;28;20594;-64
2022/01/27 01:04:09;;;;;;;40.00;23.47;;;8.40;71.90;;;11.23;54.51;102085.25;5053135;28;20211;-62
2022/01/27 01:06:42;;;;;;;36.70;23.17;;;8.40;71.90;;;11.24;54.19;102087.75;5053334;28;20194;-65
2022/01/27 01:14:49;;;;;;;38.83;23.77;;;8.30;72.10;;;11.19;54.70;102082.09;5052312;28;20313;-63
2022/01/27 01:30:58;;;;;;;41.63;25.07;;;8.30;72.10;;;11.21;54.60;102077.50;5036706;28;20288;-62
2022/01/27 01:33:33;;;;;;;35.33;23.90;;;8.30;72.10;;;11.19;54.40;102068.09;5051614;28;20225;-63
2022/01/27 01:36:05;;;;;;;33.87;23.03;;;8.30;72.20;;;11.20;54.33;102044.22;5051941;28;20546;-62
2022/01/27 01:38:33;;;;;;;35.90;22.87;;;8.30;72.90;;;11.22;54.27;102046.72;5053430;28;20204;-62
2022/01/27 01:41:00;;;;;;;33.97;22.73;;;8.30;72.30;;;11.23;54.51;102038.66;5053116;28;20281;-64
2022/01/27 01:43:28;;;;;;;36.57;24.27;;;8.30;72.00;;;11.24;54.34;102024.50;5051627;28;20213;-62
2022/01/27 01:45:56;;;;;;;34.70;23.53;;;8.30;72.00;;;11.25;54.05;102018.25;5043012;28;20203;-62
2022/01/27 01:48:23;;;;;;;36.10;22.30;;;8.30;72.00;;;11.27;54.44;102010.19;5033506;28;20273;-63
2022/01/27 01:50:53;;;;;;;36.30;24.13;;;8.30;71.90;;;11.25;54.36;102005.06;5031920;28;20238;-62
2022/01/27 01:53:21;;;;;;;40.33;25.60;;;8.30;71.70;;;11.25;54.09;102005.06;5035430;28;20218;-64
2022/01/27 01:55:48;;;;;;;38.97;23.93;;;8.30;71.70;;;11.27;53.92;102007.53;5036241;28;20210;-66
2022/01/27 01:58:15;;;;;;;35.00;22.53;;;8.30;71.80;;;11.26;53.88;102001.47;5036363;28;20571;-64
2022/01/27 02:00:43;;;;;;;34.53;22.83;;;8.40;71.80;;;11.27;53.63;102000.47;5019309;28;20198;-65
2022/01/27 02:03:11;;;;;;;34.73;22.43;;;8.30;71.50;;;11.26;53.57;101996.19;5050112;28;20244;-61
2022/01/27 02:05:45;;;;;;;38.33;23.77;;;8.30;71.60;;;11.25;54.22;102017.41;5056861;28;20685;-64
2022/01/27 02:19:16;;;;;;;39.50;24.83;;;8.30;71.40;;;11.22;53.85;101994.00;5055035;28;20186;-63
2022/01/27 02:21:47;;;;;;;43.17;24.53;;;8.30;71.30;;;11.19;54.18;101983.75;5039203;28;20292;-64
2022/01/27 02:24:16;;;;;;;39.17;24.53;;;8.30;72.20;;;11.18;54.16;101987.34;5055058;28;20210;-65
2022/01/27 02:26:44;;;;;;;35.87;24.20;;;8.30;71.50;;;11.16;53.89;101984.03;5056451;28;20760;-64
2022/01/27 02:29:11;;;;;;;39.70;24.90;;;8.20;71.60;;;11.16;54.15;101979.59;5055181;28;20704;-63
2022/01/27 02:31:39;;;;;;;38.03;25.13;;;8.20;71.60;;;11.14;54.26;101972.81;5056269;28;20214;-64
2022/01/27 02:34:07;;;;;;;33.23;23.63;;;8.20;71.50;;;11.18;54.45;101968.91;5055815;28;20221;-65
2022/01/27 02:36:34;;;;;;;43.47;26.90;;;8.30;71.50;;;11.19;53.61;101968.78;5038953;28;20664;-65
2022/01/27 02:39:05;;;;;;;36.33;24.97;;;8.30;71.30;;;11.16;53.75;101973.50;5035006;28;20206;-64
2022/01/27 02:41:42;;;;;;;38.47;24.80;;;8.30;71.30;;;11.15;54.14;101953.41;5036097;28;20189;-63
2022/01/27 02:44:19;;;;;;;36.60;23.60;;;8.30;71.30;;;11.18;53.54;101969.75;5035522;28;20249;-64
2022/01/27 02:46:50;;;;;;;38.93;25.03;;;8.30;71.30;;;11.20;53.87;101964.31;5036183;28;20186;-64
2022/01/27 02:49:17;;;;;;;41.17;24.87;;;8.30;71.10;;;11.21;53.51;101960.72;5035822;28;20217;-62
2022/01/27 02:51:45;;;;;;;40.37;25.03;;;8.30;71.00;;;11.21;53.43;101958.09;5039419;28;20272;-64
2022/01/27 02:54:13;;;;;;;38.17;23.93;;;8.30;71.10;;;11.20;53.38;101953.78;5055149;28;20293;-64
2022/01/27 02:56:46;;;;;;;38.50;25.50;;;8.30;71.10;;;11.22;53.94;101968.47;5054507;28;20198;-63
2022/01/27 02:59:15;;;;;;;41.37;24.70;;;8.30;71.00;;;11.22;53.33;101970.28;5055604;28;20224;-61
2022/01/27 03:01:45;;;;;;;38.73;24.90;;;8.30;71.00;;;11.20;53.80;101954.59;5054581;28;20217;-64
2022/01/27 03:04:13;;;;;;;36.77;25.53;;;8.30;71.70;;;11.20;53.32;101948.50;5037202;28;20244;-63
2022/01/27 03:06:41;;;;;;;35.73;23.57;;;8.30;70.70;;;11.21;53.66;101944.91;5054600;28;20205;-63
2022/01/27 03:09:09;;;;;;;38.07;22.67;;;8.30;70.90;;;11.24;53.93;101913.00;5037354;28;20400;-62
2022/01/27 03:11:45;;;;;;;36.73;23.57;;;8.30;70.80;;;11.23;53.67;101908.69;5055442;28;20225;-61
2022/01/27 03:14:14;;;;;;;32.50;21.10;;;8.30;70.70;;;11.22;53.46;101899.94;5053548;28;20224;-60
2022/01/27 03:16:42;;;;;;;33.23;23.17;;;8.30;70.70;;;11.20;53.19;101890.53;5055331;28;20194;-62
2022/01/27 03:19:10;;;;;;;36.67;23.03;;;8.30;70.60;;;11.18;53.10;101913.56;5055099;28;20204;-61
2022/01/27 03:21:38;;;;;;;34.43;21.50;;;8.30;70.60;;;11.12;53.93;101901.84;5055298;28;20277;-63
2022/01/27 03:24:07;;;;;;;35.87;23.43;;;8.40;70.50;;;11.18;53.55;101908.31;5055945;28;20289;-64
2022/01/27 03:26:34;;;;;;;32.90;21.93;;;8.30;70.40;;;11.23;53.89;101911.31;5036253;28;20205;-65
2022/01/27 03:29:03;;;;;;;32.00;21.87;;;8.40;70.60;;;11.27;53.60;101899.50;5033972;28;20643;-63
2022/01/27 03:31:31;;;;;;;37.03;23.20;;;8.40;70.50;;;11.28;53.05;101894.09;5034968;28;20190;-63
2022/01/27 03:33:58;;;;;;;34.17;22.63;;;8.40;70.40;;;11.31;53.13;101885.91;5016945;28;20219;-65
2022/01/27 03:36:26;;;;;;;36.20;24.30;;;8.40;70.20;;;11.28;52.67;101882.72;5017796;28;20194;-65
2022/01/27 03:38:53;;;;;;;35.10;24.07;;;8.40;70.20;;;11.27;52.97;101873.13;5035338;28;20194;-64
2022/01/27 03:41:22;;;;;;;36.80;23.97;;;8.40;70.30;;;11.27;53.10;101871.34;5034666;28;20202;-64
2022/01/27 03:43:51;;;;;;;33.80;22.97;;;8.40;70.30;;;11.25;53.04;101872.47;5034687;28;20285;-64
2022/01/27 03:46:20;;;;;;;32.90;22.73;;;8.40;70.20;;;11.25;53.31;101875.09;5033709;28;20190;-63
2022/01/27 03:48:47;;;;;;;31.53;22.70;;;8.40;70.20;;;11.27;52.93;101873.13;5035202;28;20270;-65
2022/01/27 03:51:15;;;;;;;37.30;23.63;;;8.30;70.20;;;11.28;52.85;101869.53;5034802;28;20243;-64
2022/01/27 03:53:42;;;;;;;31.43;21.80;;;8.30;71.10;;;11.29;53.43;101868.56;5016448;28;20234;-62
2022/01/27 03:56:10;;;;;;;38.03;23.77;;;8.30;70.40;;;11.28;53.38;101869.53;5034248;28;20201;-64
2022/01/27 03:58:38;;;;;;;32.67;21.20;;;8.30;70.20;;;11.27;53.33;101855.53;5044349;28;20546;-62
2022/01/27 04:01:06;;;;;;;34.47;22.77;;;8.40;70.30;;;11.27;52.96;101859.97;5054544;28;20268;-64
2022/01/27 04:03:37;;;;;;;35.07;22.13;;;8.30;70.20;;;11.29;52.97;101863.31;5053601;28;20265;-62
2022/01/27 04:06:09;;;;;;;30.97;21.37;;;8.40;70.30;;;11.32;52.85;101865.59;5055383;28;20262;-59
2022/01/27 04:08:38;;;;;;;34.03;23.77;;;8.40;70.10;;;11.33;52.79;101859.38;5053033;28;20307;-62
2022/01/27 04:11:09;;;;;;;34.53;23.83;;;8.40;70.10;;;11.34;53.01;101855.75;5053980;28;20299;-61
2022/01/27 04:13:37;;;;;;;35.23;23.73;;;8.40;70.00;;;11.32;53.03;101844.53;5051970;28;20682;-62
2022/01/27 04:16:05;;;;;;;34.07;23.00;;;8.50;70.00;;;11.31;53.18;101829.72;5033530;28;20190;-64
2022/01/27 04:18:33;;;;;;;34.23;22.83;;;8.50;69.70;;;11.25;52.81;101825.88;5034196;28;20277;-63
2022/01/27 04:21:01;;;;;;;29.87;21.60;;;8.50;69.90;;;11.27;53.12;101841.50;5034228;28;20194;-63
2022/01/27 04:23:29;;;;;;;33.93;23.43;;;8.50;70.00;;;11.31;53.42;101840.25;5033402;28;20573;-63
2022/01/27 04:25:57;;;;;;;34.37;22.93;;;8.50;70.20;;;11.33;53.26;101833.03;5049097;28;20186;-65
2022/01/27 04:28:30;;;;;;;37.37;23.77;;;8.50;70.60;;;11.31;53.45;101829.72;5033735;28;20195;-65
2022/01/27 04:31:00;;;;;;;33.63;23.07;;;8.40;70.70;;;11.29;53.72;101847.50;5034280;28;20218;-62
2022/01/27 04:33:30;;;;;;;35.80;23.77;;;8.40;70.80;;;11.27;53.35;101836.25;5033375;28;20215;-63
2022/01/27 04:36:00;;;;;;;40.37;24.17;;;8.40;71.00;;;11.27;53.43;101830.97;5032620;28;20198;-64
2022/01/27 04:46:07;;;;;;;34.73;24.23;;;8.30;71.90;;;11.24;54.45;101818.97;5033335;28;20693;-65
2022/01/27 04:48:40;;;;;;;34.03;22.40;;;8.30;72.40;;;11.22;54.77;101820.09;5044391;28;20198;-64
2022/01/27 04:51:11;;;;;;;32.97;24.20;;;8.30;72.80;;;11.20;54.70;101822.03;5053136;28;20261;-63
2022/01/27 04:56:29;;;;;;;29.00;21.73;;;8.30;73.30;;;11.08;55.19;101794.28;5053359;28;20308;-63
2022/01/27 04:59:02;;;;;;;38.30;24.37;;;8.30;73.40;;;11.07;55.41;101789.97;5053551;28;20170;-62
2022/01/27 05:01:41;;;;;;;38.50;24.53;;;8.20;73.70;;;11.05;56.00;101781.41;5053389;28;20193;-61
2022/01/27 05:04:15;;;;;;;33.70;22.73;;;8.20;73.70;;;11.05;56.00;101789.31;5051038;28;20210;-61
2022/01/27 05:06:44;;;;;;;33.83;23.83;;;8.20;73.90;;;11.05;56.12;101787.50;5052148;28;20220;-61
2022/01/27 05:09:12;;;;;;;30.17;22.17;;;8.20;74.00;;;11.07;55.54;101782.06;5053044;28;20194;-60
2022/01/27 05:12:10;;;;;;;31.63;21.67;;;8.20;73.90;;;11.08;55.83;101791.66;5053063;28;20198;-61
2022/01/27 05:14:37;;;;;;;33.97;22.23;;;8.20;73.90;;;11.06;55.58;101788.31;5053252;28;20267;-65
2022/01/27 05:17:05;;;;;;;33.27;23.67;;;8.20;73.70;;;11.09;55.39;101788.84;5053185;28;20193;-63
2022/01/27 05:19:32;;;;;;;32.60;23.13;;;8.20;73.70;;;11.12;55.20;101785.91;5053648;28;20198;-62
2022/01/27 05:22:00;;;;;;;30.43;21.93;;;8.20;74.40;;;11.16;55.36;101782.00;5052041;28;20264;-62
2022/01/27 05:24:28;;;;;;;33.90;22.50;;;8.20;73.90;;;11.14;55.15;101760.25;5051611;28;20674;-63
2022/01/27 05:26:56;;;;;;;32.07;22.40;;;8.20;73.90;;;11.05;55.60;101765.59;5057833;28;20280;-64
2022/01/27 05:29:23;;;;;;;35.00;22.77;;;8.10;74.60;;;11.01;56.02;101764.22;5062728;28;20242;-64
2022/01/27 05:31:50;;;;;;;31.13;22.30;;;8.20;74.80;;;10.97;56.99;101773.41;5064174;28;20197;-64
2022/01/27 05:34:18;;;;;;;31.03;21.30;;;8.20;75.20;;;10.98;56.49;101769.81;5063694;28;20245;-64
2022/01/27 05:36:45;;;;;;;29.13;21.53;;;8.20;76.10;;;10.97;56.88;101762.88;5063667;28;20518;-65
2022/01/27 05:39:12;;;;;;;33.67;21.63;;;8.20;75.30;;;10.99;56.97;101763.56;5041485;28;20641;-64
2022/01/27 05:41:42;;;;;;;34.67;21.90;;;8.20;75.30;;;11.03;57.18;101762.28;5036883;28;20187;-65
2022/01/27 05:44:10;;;;;;;33.67;22.33;;;8.20;75.50;;;11.04;56.53;101748.97;5036188;28;20264;-65
2022/01/27 05:46:37;;;;;;;29.13;21.90;;;8.20;75.70;;;11.05;56.57;101745.34;5036687;28;20335;-63
2022/01/27 05:49:05;;;;;;;32.07;22.13;;;8.20;75.90;;;11.04;56.75;101748.13;5035847;28;20191;-65
2022/01/27 05:51:33;;;;;;;28.87;21.20;;;8.10;76.30;;;11.00;57.46;101741.50;5036679;28;20198;-64
2022/01/27 05:54:01;;;;;;;34.40;24.57;;;8.10;76.40;;;10.99;57.12;101729.31;5036221;28;20224;-62
2022/01/27 05:56:28;;;;;;;31.33;20.73;;;8.10;76.50;;;10.97;57.34;101733.91;5036666;28;20269;-63
2022/01/27 05:58:57;;;;;;;30.57;22.10;;;8.10;76.40;;;10.91;57.67;101721.34;5037147;28;20201;-65
2022/01/27 06:01:24;;;;;;;28.60;21.93;;;8.10;76.80;;;10.91;58.29;101713.47;5036639;28;20281;-64
2022/01/27 06:03:52;;;;;;;30.77;20.90;;;8.10;77.00;;;10.92;57.64;101718.56;5036183;28;20238;-64
2022/01/27 06:06:20;;;;;;;30.03;21.73;;;8.10;77.20;;;10.94;58.13;101723.66;5036105;28;20190;-64
2022/01/27 06:08:47;;;;;;;30.30;22.17;;;8.10;77.10;;;10.94;57.49;101715.75;5034876;28;20197;-65
2022/01/27 06:11:14;;;;;;;32.23;22.20;;;8.10;77.00;;;10.96;57.65;101713.84;5051267;28;20194;-64
2022/01/27 06:13:43;;;;;;;28.00;19.57;;;8.10;77.10;;;10.96;57.47;101708.56;5055542;28;20218;-64
2022/01/27 06:16:12;;;;;;;31.07;22.33;;;8.10;77.10;;;10.98;57.70;101711.88;5055954;28;20252;-65
2022/01/27 06:18:41;;;;;;;31.37;22.53;;;8.10;77.30;;;10.98;58.05;101698.69;5058547;28;20190;-64
2022/01/27 06:21:10;;;;;;;34.67;23.67;;;8.10;77.30;;;10.98;57.51;101701.34;5055748;28;20198;-64
2022/01/27 06:23:37;;;;;;;32.13;22.73;;;8.10;77.30;;;10.98;57.92;101693.44;5055382;28;20210;-65
2022/01/27 06:26:05;;;;;;;32.23;22.97;;;8.00;77.20;;;10.98;57.64;101689.00;5054943;28;20288;-65
2022/01/27 06:28:32;;;;;;;33.33;23.23;;;8.10;77.30;;;10.98;58.07;101685.53;5036509;28;20203;-65
2022/01/27 06:30:59;;;;;;;31.77;21.57;;;8.10;77.30;;;10.98;57.69;101680.25;5034811;28;20599;-62
2022/01/27 06:33:28;;;;;;;29.73;21.80;;;8.00;77.00;;;10.99;57.82;101676.63;5017186;28;20237;-65
2022/01/27 06:35:56;;;;;;;31.03;20.70;;;8.00;77.20;;;10.89;57.94;101664.38;5033733;28;20226;-64
2022/01/27 06:38:24;;;;;;;27.63;19.90;;;8.00;77.20;;;10.94;58.06;101674.47;5034603;28;20206;-65
2022/01/27 06:40:51;;;;;;;28.20;21.20;;;8.10;77.10;;;10.93;58.49;101677.25;5035332;28;20229;-65
2022/01/27 06:43:18;;;;;;;26.83;19.17;;;8.10;77.10;;;11.00;58.14;101670.41;5041365;28;20221;-65
2022/01/27 06:45:46;;;;;;;28.37;21.30;;;8.10;77.10;;;11.00;58.23;101683.56;5054669;28;20190;-64
2022/01/27 06:48:13;;;;;;;28.13;20.13;;;8.10;77.20;;;11.04;57.65;101669.09;5055424;28;20221;-65
2022/01/27 06:50:42;;;;;;;27.30;20.10;;;8.10;77.30;;;11.07;58.11;101668.78;5054905;28;20290;-63
2022/01/27 06:53:10;;;;;;;28.53;22.40;;;8.10;77.30;;;11.05;58.16;101662.84;5054769;28;20777;-64
2022/01/27 06:55:38;;;;;;;28.87;20.47;;;8.10;77.50;;;11.00;58.03;101663.31;5054921;28;20217;-65
2022/01/27 06:58:05;;;;;;;29.43;20.67;;;8.10;77.60;;;11.00;58.46;101671.22;5055266;28;20619;-65
2022/01/27 07:00:33;;;;;;;29.73;19.50;;;8.10;77.70;;;10.97;58.70;101654.88;5054064;28;20673;-65
2022/01/27 07:03:00;;;;;;;25.77;20.00;;;8.10;77.90;;;10.93;58.57;101645.66;5053880;28;20210;-65
2022/01/27 07:05:31;;;;;;;27.13;20.33;;;8.10;78.20;;;10.89;58.83;101656.47;5054106;28;20201;-64
2022/01/27 07:08:01;;;;;;;29.33;20.50;;;8.10;78.40;;;10.87;59.13;101647.09;5037343;28;20272;-62
2022/01/27 07:10:28;;;;;;;26.60;19.30;;;8.10;78.60;;;10.88;58.89;101657.47;5054482;28;20186;-65
2022/01/27 07:12:56;;;;;;;27.00;19.03;;;8.00;79.20;;;10.87;59.51;101653.19;5053325;28;20201;-65
2022/01/27 07:15:23;;;;;;;25.17;19.90;;;8.00;79.20;;;10.88;59.55;101649.59;5053901;28;20678;-65
2022/01/27 07:17:52;;;;;;;25.90;17.60;;;8.00;79.40;;;10.89;59.62;101637.22;5036879;28;20624;-63
2022/01/27 07:20:19;;;;;;;22.80;17.87;;;8.00;79.40;;;10.92;59.39;101641.34;5017013;28;20210;-65
2022/01/27 07:22:46;;;;;;;24.47;17.90;;;8.10;79.40;;;10.96;59.43;101640.09;5034072;28;20198;-63
2022/01/27 07:25:15;;;;;;;22.93;18.43;;;8.10;79.50;;;11.01;59.30;101649.16;5034470;28;20221;-62
2022/01/27 07:27:44;;;;;;;23.03;16.97;;;8.10;79.50;;;11.03;59.59;101633.22;5034412;28;20282;-65
2022/01/27 07:30:12;;;;;;;23.47;17.27;;;8.10;79.50;;;11.05;59.53;101639.16;5033984;28;20651;-65
2022/01/27 07:32:39;;;;;;;23.43;17.13;;;8.10;79.80;;;11.05;59.26;101636.50;5035168;28;20201;-61
2022/01/27 07:35:07;;;;;;;23.40;17.13;;;8.10;80.60;;;11.06;59.57;101643.41;5032746;28;20222;-64
2022/01/27 07:37:36;;;;;;;22.83;16.23;;;8.10;79.90;;;11.05;59.63;101634.72;5033049;28;20197;-64
2022/01/27 07:40:05;;;;;;;20.13;15.67;;;8.10;79.90;;;11.06;59.80;101630.25;5033603;28;20248;-63
2022/01/27 07:42:33;;;;;;;19.73;15.77;;;8.10;79.80;;;11.09;59.59;101645.75;5033833;28;20202;-63
2022/01/27 07:45:01;;;;;;;19.07;15.37;;;8.20;80.60;;;11.13;59.34;101631.28;5032612;28;20662;-64
2022/01/27 07:47:28;;;;;;;20.73;15.60;;;8.20;79.70;;;11.17;59.78;101619.47;5034785;28;20194;-64
2022/01/27 07:49:56;;;;;;;20.30;15.37;;;8.20;79.90;;;11.18;59.24;101613.19;5046436;28;20205;-65
2022/01/27 07:52:23;;;;;;;20.23;15.23;;;8.20;79.90;;;11.19;59.59;101620.13;5052992;28;20598;-65
2022/01/27 07:54:51;;;;;;;20.13;15.87;;;8.20;79.90;;;11.17;59.48;101622.91;5053592;28;20221;-63
2022/01/27 07:57:18;;;;;;;18.83;14.40;;;8.30;80.00;;;11.20;59.79;101633.13;5052640;28;20214;-63
2022/01/27 07:59:47;;;;;;;15.87;13.63;;;8.30;80.00;;;11.21;59.36;101612.88;5052077;28;20197;-64
2022/01/27 08:02:14;;;;;;;18.67;13.53;;;8.30;79.80;;;11.22;59.49;101625.91;5053541;28;20201;-62
2022/01/27 08:04:42;;;;;;;17.57;12.83;;;8.30;79.80;;;11.24;59.44;101617.84;5051511;28;20221;-65
2022/01/27 08:07:10;;;;;;;15.23;12.40;;;8.30;79.80;;;11.28;59.69;101616.53;5054450;28;20228;-65
2022/01/27 08:09:38;;;;;;;14.97;12.43;;;8.40;79.90;;;11.32;60.02;101615.25;5053104;28;20240;-64
2022/01/27 08:12:06;;;;;;;17.33;13.13;;;8.40;79.80;;;11.35;59.24;101614.94;5053536;28;20204;-65
2022/01/27 08:14:34;;;;;;;15.40;13.33;;;8.40;80.00;;;11.36;59.83;101629.78;5053132;28;20213;-63
2022/01/27 08:17:03;;;;;;;15.67;12.23;;;8.40;80.10;;;11.37;59.90;101610.31;5053549;28;20624;-63
2022/01/27 08:19:30;;;;;;;15.90;12.93;;;8.50;80.10;;;11.44;59.62;101629.78;5052958;28;20198;-66
2022/01/27 08:21:58;;;;;;;15.17;12.13;;;8.50;80.10;;;11.49;59.74;101611.69;5051682;28;20215;-66
2022/01/27 08:24:25;;;;;;;13.40;11.03;;;8.50;80.00;;;11.53;59.52;101619.13;5052677;28;20293;-63
2022/01/27 08:26:58;;;;;;;15.83;12.83;;;8.60;80.00;;;11.58;59.32;101605.47;5051978;28;20221;-64
2022/01/27 08:29:33;;;;;;;14.47;11.70;;;8.60;80.20;;;11.58;59.02;101605.47;5036002;28;20251;-65
2022/01/27 08:32:31;;;;;;;14.10;12.10;;;8.60;80.00;;;11.57;59.46;101598.56;5052995;28;20201;-63
2022/01/27 08:34:58;;;;;;;14.37;11.47;;;8.60;80.20;;;11.57;59.29;101595.91;5052937;28;20229;-65
2022/01/27 08:37:26;;;;;;;13.10;11.13;;;8.60;80.10;;;11.57;59.21;101594.13;5052016;28;20201;-64
2022/01/27 08:39:53;;;;;;;13.63;11.63;;;8.60;80.10;;;11.59;59.44;101596.59;5033690;28;20680;-62
2022/01/27 08:42:21;;;;;;;12.30;11.00;;;8.60;80.00;;;11.60;59.47;101587.66;5033424;28;20570;-65
2022/01/27 08:44:48;;;;;;;14.17;11.43;;;8.60;80.00;;;11.61;59.29;101593.78;5033621;28;20214;-60
2022/01/27 08:47:16;;;;;;;12.30;10.40;;;8.60;80.20;;;11.60;59.44;101587.66;5033802;28;20221;-64
2022/01/27 08:49:46;;;;;;;16.67;12.33;;;8.60;80.10;;;11.60;59.53;101597.41;5034048;28;20225;-62
2022/01/27 08:52:14;;;;;;;11.50;10.30;;;8.60;80.10;;;11.57;59.97;101603.81;5034217;28;20568;-62
2022/01/27 08:54:42;;;;;;;11.97;10.73;;;8.70;80.70;;;11.58;59.55;101584.38;5041137;28;20348;-64
2022/01/27 08:57:11;;;;;;;10.33;9.13;;;8.70;80.10;;;11.60;60.16;101589.50;5052466;28;20243;-64
2022/01/27 08:59:38;;;;;;;11.50;8.87;;;8.70;80.20;;;11.65;59.82;101595.13;5034386;28;20637;-64
2022/01/27 09:02:07;;;;;;;15.43;11.27;;;8.70;80.20;;;11.65;59.76;101584.56;5052820;28;20227;-63
2022/01/27 09:04:34;;;;;;;11.13;9.27;;;8.70;80.10;;;11.66;59.78;101592.31;5040172;28;20240;-65
2022/01/27 09:07:03;;;;;;;12.57;9.73;;;8.70;80.40;;;11.66;59.58;101576.50;5043743;28;20327;-64
2022/01/27 09:09:30;;;;;;;11.87;10.00;;;8.70;80.50;;;11.69;59.53;101588.56;5049367;28;20684;-65
2022/01/27 09:11:59;;;;;;;13.07;9.37;;;8.70;80.70;;;11.71;59.73;101591.88;5040967;28;20219;-65
2022/01/27 09:14:31;;;;;;;10.80;9.37;;;8.70;80.80;;;11.68;60.01;101579.81;5050257;28;20205;-65
2022/01/27 09:16:59;;;;;;;10.57;9.30;;;8.80;80.80;;;11.69;60.08;101576.22;5037154;28;20216;-63
2022/01/27 09:19:28;;;;;;;9.97;8.73;;;8.80;80.80;;;11.74;60.15;101573.09;5038945;28;20229;-64
2022/01/27 09:21:56;;;;;;;9.47;8.30;;;8.80;80.90;;;11.78;59.97;101579.69;5044874;28;20214;-63
2022/01/27 09:24:36;;;;;;;10.40;8.07;;;8.80;81.10;;;11.78;60.35;101569.97;5060056;28;20237;-65
2022/01/27 09:27:05;;;;;;;10.17;8.87;;;8.90;81.00;;;11.81;60.14;101574.94;5039836;28;20198;-66
2022/01/27 09:29:32;;;;;;;9.73;8.57;;;8.90;80.90;;;11.83;60.15;101578.22;5043075;28;20629;-65
2022/01/27 09:32:05;;;;;;;12.03;9.37;;;8.90;80.90;;;11.84;60.27;101569.31;5056026;28;20692;-65
2022/01/27 09:34:34;;;;;;;9.30;8.27;;;8.90;80.80;;;11.88;60.08;101565.38;5066291;28;20333;-64
2022/01/27 09:37:03;;;;;;;10.90;8.10;;;8.90;81.70;;;11.89;60.12;101567.00;5047223;28;20570;-64
2022/01/27 09:39:34;;;;;;;9.40;7.47;;;9.00;81.10;;;11.93;60.14;101568.31;5041822;28;20217;-63
2022/01/27 09:42:05;;;;;;;10.00;8.27;;;9.00;81.10;;;11.97;60.35;101569.69;5041002;28;20544;-61
2022/01/27 09:44:36;;;;;;;10.67;8.77;;;9.00;81.20;;;11.99;60.19;101580.88;5049120;28;20260;-62
2022/01/27 09:47:13;;;;;;;9.63;8.27;;;9.10;81.50;;;12.00;60.60;101571.16;5034668;28;20582;-64
2022/01/27 09:50:04;;;;;;;7.80;7.00;;;9.10;81.60;;;12.07;60.69;101578.28;5038978;28;20289;-63
2022/01/27 09:52:32;;;;;;;8.83;7.93;;;9.10;81.60;;;12.08;60.89;101566.72;5042114;28;20241;-65
2022/01/27 09:55:01;;;;;;;8.03;7.23;;;9.20;81.80;;;12.11;60.91;101562.91;5029477;28;20292;-63
2022/01/27 09:57:29;;;;;;;8.63;7.50;;;9.20;81.80;;;12.12;60.85;101569.84;5050704;28;20229;-63
2022/01/27 09:59:56;;;;;;;8.37;7.23;;;9.20;81.80;;;12.16;60.59;101561.44;5039116;28;20255;-64
2022/01/27 10:02:26;;;;;;;8.50;7.57;;;9.30;81.80;;;12.18;60.81;101567.38;5047695;28;20240;-62
2022/01/27 10:04:57;;;;;;;9.73;8.73;;;9.30;81.90;;;12.21;60.94;101569.69;5045057;28;20304;-63
2022/01/27 10:07:29;;;;;;;9.50;8.50;;;9.30;82.30;;;12.18;61.11;101572.66;5050041;28;20245;-61
2022/01/27 10:10:04;;;;;;;9.70;8.70;;;9.30;82.30;;;12.17;61.25;101581.56;5047864;28;20218;-61
2022/01/27 10:12:37;;;;;;;11.40;7.87;;;9.30;82.20;;;12.16;61.14;101579.91;5047297;28;20205;-64
2022/01/27 10:15:12;;;;;;;13.63;8.60;;;9.30;82.20;;;12.20;61.17;101573.31;5041206;28;20230;-64
2022/01/27 10:18:08;;;;;;;9.80;8.80;;;9.40;82.40;;;12.21;61.20;101582.06;5046560;28;20254;-66
2022/01/27 10:20:38;;;;;;;12.50;8.87;;;9.40;82.50;;;12.28;61.40;101579.59;5055578;28;20197;-65
2022/01/27 10:23:16;;;;;;;13.50;9.50;;;9.40;82.50;;;12.31;61.38;101566.06;5049142;28;20222;-64
2022/01/27 10:25:47;;;;;;;12.23;8.27;;;9.50;82.80;;;12.38;61.34;101578.44;5051893;28;20224;-64
2022/01/27 10:28:31;;;;;;;13.30;8.77;;;9.50;82.80;;;12.43;61.66;101580.59;5038182;28;20654;-64
2022/01/27 10:31:10;;;;;;;10.50;8.30;;;9.50;82.90;;;12.47;61.29;101572.16;5062370;28;20712;-67
2022/01/27 10:33:47;;;;;;;15.03;8.43;;;9.60;82.90;;;12.50;61.30;101573.66;5045917;28;20218;-63
2022/01/27 10:36:18;;;;;;;15.70;7.73;;;9.60;83.00;;;12.54;61.50;101562.59;5051467;28;20201;-63
2022/01/27 10:38:45;;;;;;;12.43;8.30;;;9.60;83.00;;;12.57;61.51;101558.78;5050497;28;20210;-68
2022/01/27 10:41:17;;;;;;;14.97;8.13;;;9.70;83.20;;;12.64;61.62;101554.47;5049186;28;20206;-63
2022/01/27 10:44:14;;;;;;;11.23;8.53;;;9.70;83.20;;;12.67;61.53;101556.78;5028269;28;20234;-65
2022/01/27 10:47:03;;;;;;;10.40;8.07;;;9.80;83.30;;;12.72;61.51;101565.00;5053763;28;20205;-65
2022/01/27 10:49:34;;;;;;;15.57;8.87;;;9.90;83.30;;;12.80;61.58;101565.00;5040573;28;20324;-64
2022/01/27 10:52:02;;;;;;;11.13;7.43;;;9.90;83.20;;;12.88;61.55;101565.00;5041497;28;20710;-63
2022/01/27 10:54:40;;;;;;;11.13;7.57;;;10.00;82.10;;;12.97;61.30;101564.00;5039088;28;20294;-64
2022/01/27 10:57:12;;;;;;;10.57;8.20;;;10.00;82.00;;;13.06;61.20;101563.00;5045038;28;20351;-64
2022/01/27 10:59:42;;;;;;;12.03;7.63;;;10.10;82.00;;;13.15;61.05;101567.25;5044332;28;20289;-64
2022/01/27 11:02:12;;;;;;;12.13;8.07;;;10.10;81.90;;;13.23;60.98;101579.63;5047246;28;20253;-64
2022/01/27 11:04:41;;;;;;;12.57;7.80;;;10.20;81.80;;;13.28;60.80;101564.06;5041799;28;20222;-65
2022/01/27 11:07:12;;;;;;;9.13;7.13;;;10.30;81.70;;;13.34;60.45;101572.13;5038601;28;20698;-64
2022/01/27 11:09:44;;;;;;;12.63;7.70;;;10.30;81.60;;;13.41;60.57;101562.50;5029242;28;20264;-61